x

San Francisco - 18nm West Of San Francisco, Ca (46026) Wave Buoy

2:50pm - Mon 23rd Oct 2017 All times are PDT. -7 hours from GMT.

  • Sig Wave height 9.2ft
  • Swell Direction
  • Peak Period 11s
  • Average Period 9s
  • Wind
    9mph, 11mph gusts
  • Sea Temp 57°f
  • Air Temp 58°f
  • Sea Pressure 1021.9mb
  • San Francisco - 18nm West Of San Francisco, Ca
  • San Francisco - 18nm West Of San Francisco, Ca

More Historic Weather Station data

Upgrade to MSW Pro to gain access to the past 30 days of data for over 8000 Wavebouys and Weather Stations around the globe.

Join

Comparision Forecast

View Surf forecast
   
Mon 10/23 2:50pm 9ft 11s 9s 9 11 mph 1021.9mb 57f 58f
1:50pm 9.5ft 12s 9s 7 11 mph 1022.6mb 57f 57f
12:50pm 9ft 12s 9s 7 9 mph 1023.4mb 57f 57f
11:50am 8ft 11s 9s 7 9 mph 1023.7mb 56f 57f
10:50am 8ft 11s 8s 4 9 mph 1024.2mb 56f 56f
9:50am 7.5ft 12s 8s 2 4 mph 1024.2mb 55f 56f
8:50am 7.5ft 13s 8s 4 4 mph 1024mb 55f 56f
7:50am 7ft 12s 8s 4 7 mph 1023.6mb 55f 55f
6:50am 7.5ft 11s 8s 4 7 mph 1023.5mb 55f 56f
5:50am 7.5ft 12s 8s 2 2 mph 1023.3mb 55f 55f
4:50am 7ft 12s 8s 4 7 mph 1023.4mb 55f 56f
3:50am 7ft 12s 8s 4 7 mph 1023.7mb 55f 56f
2:50am 7ft 12s 8s 2 4 mph 1023.8mb 55f 56f
1:50am 8ft 12s 8s 4 4 mph 1024.2mb 55f 57f
12:50am 8ft 11s 8s 4 7 mph 1024.5mb 55f 57f
Sun 10/22 11:50pm 7ft 12s 8s 9 11 mph 1024.8mb 55f 57f
10:50pm 7ft 13s 8s 16 20 mph 1024.8mb 55f 58f
9:50pm 8.5ft 13s 8s 13 18 mph 1025mb 55f 58f
8:50pm 8ft 11s 8s 13 16 mph 1024.9mb 55f 57f
7:50pm 8ft 12s 8s 13 16 mph 1024.9mb 56f 57f
6:50pm 8ft 13s 8s 16 18 mph 1024.7mb 56f 58f
5:50pm 9ft 11s 9s 18 22 mph 1024.8mb 56f 58f
4:50pm 8ft 12s 9s 16 20 mph 1025.4mb 56f 58f
3:50pm 9ft 12s 9s 16 20 mph 1025.9mb 56f 57f
2:50pm 9ft 12s 9s 16 20 mph 1026.1mb 56f 57f
1:50pm 9ft 12s 9s 16 18 mph 1026.8mb 56f 56f
12:50pm 9ft 12s 9s 13 18 mph 1027.6mb 56f 55f
11:50am 8ft 11s 9s 13 16 mph 1027.9mb 56f 54f
10:50am 9ft 13s 9s 9 11 mph 1028.3mb 55f 54f
9:50am 8.5ft 13s 10s 9 11 mph 1028.2mb 55f 55f
8:50am 7ft 13s 9s 9 11 mph 1028.2mb 55f 54f
7:50am 8.5ft 12s 9s 9 11 mph 1027.5mb 55f 54f
6:50am 8ft 12s 9s 9 11 mph 1027.1mb 55f 55f
5:50am 8ft 12s 9s 9 11 mph 1026.7mb 55f 54f
4:50am 7.5ft 14s 9s 13 16 mph 1026.7mb 55f 55f
3:50am 8ft 11s 9s 13 16 mph 1026.8mb 55f 54f
2:50am 7ft 12s 9s 11 16 mph 1027mb 55f 55f
1:50am 7ft 11s 9s 9 13 mph 1027mb 55f 55f
12:50am 7ft 12s 8s 11 13 mph 1026.6mb 55f 56f
Sat 10/21 11:50pm 8ft 14s 9s 9 11 mph 1026.2mb 55f 56f
10:50pm 8ft 13s 9s 9 11 mph 1025.9mb 56f 55f
9:50pm 8ft 14s 9s 9 11 mph 1025.8mb 56f 56f
8:50pm 7.5ft 13s 9s 11 16 mph 1025.7mb 56f 56f
7:50pm 8ft 13s 10s 11 16 mph 1025.5mb 56f 56f
6:50pm 8.5ft 14s 10s 11 13 mph 1025.3mb 56f 56f
5:50pm 9ft 13s 10s 9 11 mph 1025.1mb 57f 56f
4:50pm 8.5ft 14s 9s 7 11 mph 1024.7mb 57f 56f
3:50pm 9ft 14s 10s 9 11 mph 1024.3mb 56f 56f
2:50pm 10ft 14s 10s 9 11 mph 1024.3mb 56f 56f
1:50pm 9.5ft 14s 10s 9 11 mph 1024.6mb 56f 56f
12:50pm 10ft 15s 10s 9 13 mph 1025mb 56f 55f
11:50am 9.5ft 15s 10s 11 13 mph 1025.3mb 55f 55f
10:50am 10.5ft 15s 10s 4 7 mph 1024.9mb 55f 55f
9:50am 11ft 15s 10s 4 9 mph 1024.7mb 55f 55f
8:50am 9.5ft 15s 10s 7 11 mph 1023.9mb 55f 55f
7:50am 9.5ft 16s 10s 9 11 mph 1023.8mb 55f 55f
6:50am 10ft 16s 10s 9 13 mph 1023.7mb 55f 55f
5:50am 11ft 16s 10s 9 13 mph 1023mb 55f 55f
4:50am 10.5ft 14s 10s 13 16 mph 1022.4mb 55f 55f
3:50am 11ft 15s 10s 11 13 mph 1022.3mb 55f 55f
2:50am 11ft 15s 10s 9 13 mph 1022.2mb 55f 55f
1:50am 11.5ft 16s 11s 9 11 mph 1022mb 55f 55f
12:50am 11ft 16s 10s 11 16 mph 1022mb 55f 55f
Fri 10/20 11:50pm 11.5ft 16s 10s 16 20 mph 1021.8mb 55f 55f
10:50pm 12ft 15s 10s 18 20 mph 1021.6mb 55f 56f
9:50pm 11ft 16s 10s 18 22 mph 1021.2mb 55f 55f
8:50pm 12.5ft 15s 10s 13 18 mph 1021.3mb 55f 56f
7:50pm 13.5ft 16s 11s 13 18 mph 1020.7mb 55f 56f
6:50pm 12.5ft 16s 10s 13 18 mph 1020.7mb 56f 56f
5:50pm 13ft 16s 11s 13 18 mph 1020.4mb 56f 56f
4:50pm 12ft 16s 10s 11 16 mph 1020.5mb 56f 56f
3:50pm 12ft 16s 10s 11 16 mph 1020.4mb 56f 56f
2:50pm 12ft 17s 11s 9 13 mph 1020mb 56f 56f
1:50pm 11ft 14s 10s 11 16 mph 1020.4mb 56f 56f
12:50pm 11ft 16s 11s 9 11 mph 1020.1mb 55f 55f
11:50am 12.5ft 16s 12s 9 11 mph 1020.1mb 55f 55f
10:50am 10ft 17s 11s 7 9 mph 1019.6mb 55f 55f
9:50am 11ft 17s 11s 4 7 mph 1019.2mb 55f 56f
8:50am 11ft 17s 11s  -  4 mph 1018.2mb 55f 56f
7:50am 11.5ft 15s 11s  -  4 mph 1017.3mb 55f 55f
6:50am 11.5ft 17s 11s 4 7 mph 1016.9mb 55f 55f
5:50am 13ft 17s 12s 7 9 mph 1016.6mb 55f 55f
4:50am 13ft 19s 12s 7 9 mph 1015.8mb 55f 55f
3:50am 12ft 17s 11s 13 18 mph 1015.1mb 55f 55f
2:50am 12ft 17s 11s 13 18 mph 1014.7mb 55f 55f
1:50am 11ft 17s 10s 16 20 mph 1013.8mb 55f 54f
12:50am 10ft 19s 8s 18 25 mph 1013.5mb 55f 54f
Thu 10/19 11:50pm 7ft 19s 7s 25 29 mph 1012.9mb 55f 53f